sensor_id;sensor_type;location;lat;lon;timestamp;pressure;altitude;pressure_sealevel;temperature
64600;BMP280;6553;48.412;9.514;2024-03-22T00:01:53;71661.50;;;19.80
64600;BMP280;6553;48.412;9.514;2024-03-22T00:04:19;71656.50;;;19.81
64600;BMP280;6553;48.412;9.514;2024-03-22T00:06:47;71657.69;;;19.79
64600;BMP280;6553;48.412;9.514;2024-03-22T00:09:14;71652.28;;;19.77
64600;BMP280;6553;48.412;9.514;2024-03-22T00:11:41;71653.88;;;19.78
64600;BMP280;6553;48.412;9.514;2024-03-22T00:14:09;71656.63;;;19.78
64600;BMP280;6553;48.412;9.514;2024-03-22T00:16:35;71654.50;;;19.76
64600;BMP280;6553;48.412;9.514;2024-03-22T00:19:01;71656.63;;;19.78
64600;BMP280;6553;48.412;9.514;2024-03-22T00:21:28;71656.09;;;19.78
64600;BMP280;6553;48.412;9.514;2024-03-22T00:23:55;71651.75;;;19.76
64600;BMP280;6553;48.412;9.514;2024-03-22T00:26:21;71651.19;;;19.76
64600;BMP280;6553;48.412;9.514;2024-03-22T00:28:47;71648.56;;;19.73
64600;BMP280;6553;48.412;9.514;2024-03-22T00:31:13;71651.19;;;19.76
64600;BMP280;6553;48.412;9.514;2024-03-22T00:33:39;71651.09;;;19.78
64600;BMP280;6553;48.412;9.514;2024-03-22T00:36:05;71651.31;;;19.73
64600;BMP280;6553;48.412;9.514;2024-03-22T00:38:31;71650.16;;;19.75
64600;BMP280;6553;48.412;9.514;2024-03-22T00:40:58;71651.84;;;19.74
64600;BMP280;6553;48.412;9.514;2024-03-22T00:43:24;71655.78;;;19.72
64600;BMP280;6553;48.412;9.514;2024-03-22T00:45:49;71655.16;;;19.74
64600;BMP280;6553;48.412;9.514;2024-03-22T00:48:16;71656.22;;;19.75
64600;BMP280;6553;48.412;9.514;2024-03-22T00:50:41;71645.78;;;19.73
64600;BMP280;6553;48.412;9.514;2024-03-22T00:53:07;71648.66;;;19.71
64600;BMP280;6553;48.412;9.514;2024-03-22T00:55:34;71646.94;;;19.72
64600;BMP280;6553;48.412;9.514;2024-03-22T00:58:00;71646.31;;;19.74
64600;BMP280;6553;48.412;9.514;2024-03-22T01:00:25;71653.97;;;19.76
64600;BMP280;6553;48.412;9.514;2024-03-22T01:02:51;71653.03;;;19.72
64600;BMP280;6553;48.412;9.514;2024-03-22T01:05:17;71650.78;;;19.73
64600;BMP280;6553;48.412;9.514;2024-03-22T01:07:43;71653.56;;;19.73
64600;BMP280;6553;48.412;9.514;2024-03-22T01:10:11;71650.78;;;19.73
64600;BMP280;6553;48.412;9.514;2024-03-22T01:12:37;71644.72;;;19.72
64600;BMP280;6553;48.412;9.514;2024-03-22T01:15:06;71649.19;;;19.71
64600;BMP280;6553;48.412;9.514;2024-03-22T01:17:32;71645.91;;;19.71
64600;BMP280;6553;48.412;9.514;2024-03-22T01:19:58;71644.84;;;19.70
64600;BMP280;6553;48.412;9.514;2024-03-22T01:22:23;71644.72;;;19.72
64600;BMP280;6553;48.412;9.514;2024-03-22T01:24:49;71645.38;;;19.70
64600;BMP280;6553;48.412;9.514;2024-03-22T01:27:15;71648.66;;;19.71
64600;BMP280;6553;48.412;9.514;2024-03-22T01:29:41;71648.66;;;19.71
64600;BMP280;6553;48.412;9.514;2024-03-22T01:32:07;71648.13;;;19.70
64600;BMP280;6553;48.412;9.514;2024-03-22T01:34:33;71647.06;;;19.69
64600;BMP280;6553;48.412;9.514;2024-03-22T01:37:00;71652.50;;;19.72
64600;BMP280;6553;48.412;9.514;2024-03-22T01:39:26;71641.53;;;19.69
64600;BMP280;6553;48.412;9.514;2024-03-22T01:41:52;71645.38;;;19.70
64600;BMP280;6553;48.412;9.514;2024-03-22T01:44:18;71644.94;;;19.67
64600;BMP280;6553;48.412;9.514;2024-03-22T01:46:46;71645.38;;;19.70
64600;BMP280;6553;48.412;9.514;2024-03-22T01:49:15;71644.31;;;19.69
64600;BMP280;6553;48.412;9.514;2024-03-22T01:51:42;71646.00;;;19.68
64600;BMP280;6553;48.412;9.514;2024-03-22T01:54:11;71644.31;;;19.69
64600;BMP280;6553;48.412;9.514;2024-03-22T01:56:39;71643.78;;;19.69
64600;BMP280;6553;48.412;9.514;2024-03-22T01:59:06;71639.41;;;19.67
64600;BMP280;6553;48.412;9.514;2024-03-22T02:01:32;71645.06;;;19.65
64600;BMP280;6553;48.412;9.514;2024-03-22T02:03:58;71638.38;;;19.66
64600;BMP280;6553;48.412;9.514;2024-03-22T02:06:24;71640.47;;;19.68
64600;BMP280;6553;48.412;9.514;2024-03-22T02:08:50;71643.38;;;19.66
64600;BMP280;6553;48.412;9.514;2024-03-22T02:11:16;71641.00;;;19.69
64600;BMP280;6553;48.412;9.514;2024-03-22T02:13:42;71637.41;;;19.63
64600;BMP280;6553;48.412;9.514;2024-03-22T02:16:09;71637.91;;;19.63
64600;BMP280;6553;48.412;9.514;2024-03-22T02:18:35;71640.47;;;19.68
64600;BMP280;6553;48.412;9.514;2024-03-22T02:21:01;71642.69;;;19.68
64600;BMP280;6553;48.412;9.514;2024-03-22T02:23:33;71640.06;;;19.65
64600;BMP280;6553;48.412;9.514;2024-03-22T02:26:00;71637.91;;;19.63
64600;BMP280;6553;48.412;9.514;2024-03-22T02:28:26;71643.91;;;19.66
64600;BMP280;6553;48.412;9.514;2024-03-22T02:30:52;71643.91;;;19.66
64600;BMP280;6553;48.412;9.514;2024-03-22T02:33:18;71644.94;;;19.67
64600;BMP280;6553;48.412;9.514;2024-03-22T02:35:47;71640.59;;;19.66
64600;BMP280;6553;48.412;9.514;2024-03-22T02:38:13;71637.81;;;19.66
64600;BMP280;6553;48.412;9.514;2024-03-22T02:40:38;71635.16;;;19.63
64600;BMP280;6553;48.412;9.514;2024-03-22T02:43:04;71636.88;;;19.62
64600;BMP280;6553;48.412;9.514;2024-03-22T02:45:31;71640.69;;;19.63
64600;BMP280;6553;48.412;9.514;2024-03-22T02:47:57;71637.91;;;19.63
64600;BMP280;6553;48.412;9.514;2024-03-22T02:50:23;71638.03;;;19.60
64600;BMP280;6553;48.412;9.514;2024-03-22T02:52:49;71634.63;;;19.63
64600;BMP280;6553;48.412;9.514;2024-03-22T02:55:16;71641.22;;;19.63
64600;BMP280;6553;48.412;9.514;2024-03-22T02:57:42;71635.91;;;19.58
64600;BMP280;6553;48.412;9.514;2024-03-22T03:00:08;71635.81;;;19.61
64600;BMP280;6553;48.412;9.514;2024-03-22T03:02:34;71631.97;;;19.60
64600;BMP280;6553;48.412;9.514;2024-03-22T03:05:01;71635.28;;;19.60
64600;BMP280;6553;48.412;9.514;2024-03-22T03:07:26;71634.13;;;19.62
64600;BMP280;6553;48.412;9.514;2024-03-22T03:09:53;71633.25;;;19.56
64600;BMP280;6553;48.412;9.514;2024-03-22T03:12:19;71632.50;;;19.60
64600;BMP280;6553;48.412;9.514;2024-03-22T03:14:45;71639.66;;;19.62
64600;BMP280;6553;48.412;9.514;2024-03-22T03:17:11;71629.31;;;19.57
64600;BMP280;6553;48.412;9.514;2024-03-22T03:19:37;71640.69;;;19.63
64600;BMP280;6553;48.412;9.514;2024-03-22T03:22:03;71637.50;;;19.60
64600;BMP280;6553;48.412;9.514;2024-03-22T03:24:29;71640.28;;;19.60
64600;BMP280;6553;48.412;9.514;2024-03-22T03:26:54;71638.56;;;19.61
64600;BMP280;6553;48.412;9.514;2024-03-22T03:29:20;71633.69;;;19.59
64600;BMP280;6553;48.412;9.514;2024-03-22T03:31:46;71631.97;;;19.60
64600;BMP280;6553;48.412;9.514;2024-03-22T03:34:11;71630.38;;;19.58
64600;BMP280;6553;48.412;9.514;2024-03-22T03:36:37;71629.31;;;19.57
64600;BMP280;6553;48.412;9.514;2024-03-22T03:39:03;71635.91;;;19.58
64600;BMP280;6553;48.412;9.514;2024-03-22T03:41:32;71636.44;;;19.59
64600;BMP280;6553;48.412;9.514;2024-03-22T03:43:58;71635.41;;;19.58
64600;BMP280;6553;48.412;9.514;2024-03-22T03:46:23;71633.78;;;19.56
64600;BMP280;6553;48.412;9.514;2024-03-22T03:48:49;71639.75;;;19.59
64600;BMP280;6553;48.412;9.514;2024-03-22T03:51:15;71635.91;;;19.58
64600;BMP280;6553;48.412;9.514;2024-03-22T03:53:40;71634.88;;;19.57
64600;BMP280;6553;48.412;9.514;2024-03-22T03:56:06;71628.78;;;19.57
64600;BMP280;6553;48.412;9.514;2024-03-22T03:58:32;71636.56;;;19.56
64600;BMP280;6553;48.412;9.514;2024-03-22T04:00:58;71628.25;;;19.56
64600;BMP280;6553;48.412;9.514;2024-03-22T04:03:24;71634.88;;;19.57
64600;BMP280;6553;48.412;9.514;2024-03-22T04:06:00;71636.44;;;19.59
64600;BMP280;6553;48.412;9.514;2024-03-22T04:08:27;71635.41;;;19.58
64600;BMP280;6553;48.412;9.514;2024-03-22T04:10:54;71625.19;;;19.51
64600;BMP280;6553;48.412;9.514;2024-03-22T04:13:28;71630.38;;;19.58
64600;BMP280;6553;48.412;9.514;2024-03-22T04:15:54;71635.50;;;19.55
64600;BMP280;6553;48.412;9.514;2024-03-22T04:18:20;71634.19;;;19.59
64600;BMP280;6553;48.412;9.514;2024-03-22T04:20:56;71634.75;;;19.60
64600;BMP280;6553;48.412;9.514;2024-03-22T04:23:24;71629.88;;;19.58
64600;BMP280;6553;48.412;9.514;2024-03-22T04:25:56;71629.88;;;19.58
64600;BMP280;6553;48.412;9.514;2024-03-22T04:28:22;71631.56;;;19.57
64600;BMP280;6553;48.412;9.514;2024-03-22T04:31:03;71632.19;;;19.55
64600;BMP280;6553;48.412;9.514;2024-03-22T04:33:30;71623.50;;;19.52
64600;BMP280;6553;48.412;9.514;2024-03-22T04:35:57;71631.56;;;19.57
64600;BMP280;6553;48.412;9.514;2024-03-22T04:38:24;71631.13;;;19.54
64600;BMP280;6553;48.412;9.514;2024-03-22T04:40:50;71632.19;;;19.55
64600;BMP280;6553;48.412;9.514;2024-03-22T04:43:17;71626.13;;;19.54
64600;BMP280;6553;48.412;9.514;2024-03-22T04:45:43;71623.50;;;19.52
64600;BMP280;6553;48.412;9.514;2024-03-22T04:48:13;71632.09;;;19.57
64600;BMP280;6553;48.412;9.514;2024-03-22T04:50:39;71629.44;;;19.55
64600;BMP280;6553;48.412;9.514;2024-03-22T04:53:05;71636.03;;;19.56
64600;BMP280;6553;48.412;9.514;2024-03-22T04:55:32;71634.44;;;19.54
64600;BMP280;6553;48.412;9.514;2024-03-22T04:58:01;71627.19;;;19.55
64600;BMP280;6553;48.412;9.514;2024-03-22T05:00:28;71631.13;;;19.54
64600;BMP280;6553;48.412;9.514;2024-03-22T05:02:54;71630.63;;;19.53
64600;BMP280;6553;48.412;9.514;2024-03-22T05:05:20;71627.31;;;19.53
64600;BMP280;6553;48.412;9.514;2024-03-22T05:07:46;71628.38;;;19.54
64600;BMP280;6553;48.412;9.514;2024-03-22T05:10:12;71624.53;;;19.53
64600;BMP280;6553;48.412;9.514;2024-03-22T05:12:38;71632.19;;;19.55
64600;BMP280;6553;48.412;9.514;2024-03-22T05:15:06;71630.63;;;19.53
64600;BMP280;6553;48.412;9.514;2024-03-22T05:17:32;71624.66;;;19.50
64600;BMP280;6553;48.412;9.514;2024-03-22T05:19:59;71625.59;;;19.54
64600;BMP280;6553;48.412;9.514;2024-03-22T05:22:25;71629.53;;;19.52
64600;BMP280;6553;48.412;9.514;2024-03-22T05:24:51;71625.31;;;19.48
64600;BMP280;6553;48.412;9.514;2024-03-22T05:27:19;71629.13;;;19.49
64600;BMP280;6553;48.412;9.514;2024-03-22T05:29:45;71628.50;;;19.51
64600;BMP280;6553;48.412;9.514;2024-03-22T05:32:11;71628.50;;;19.51
64600;BMP280;6553;48.412;9.514;2024-03-22T05:34:37;71626.25;;;19.52
64600;BMP280;6553;48.412;9.514;2024-03-22T05:37:03;71626.66;;;19.55
64600;BMP280;6553;48.412;9.514;2024-03-22T05:39:29;71624.13;;;19.50
64600;BMP280;6553;48.412;9.514;2024-03-22T05:41:55;71624.00;;;19.52
64600;BMP280;6553;48.412;9.514;2024-03-22T05:44:23;71618.84;;;19.45
64600;BMP280;6553;48.412;9.514;2024-03-22T05:46:49;71612.97;;;19.39
64600;BMP280;6553;48.412;9.514;2024-03-22T05:49:16;71625.59;;;19.54
64600;BMP280;6553;48.412;9.514;2024-03-22T05:51:42;71625.59;;;19.54
64600;BMP280;6553;48.412;9.514;2024-03-22T05:54:08;71620.28;;;19.49
64600;BMP280;6553;48.412;9.514;2024-03-22T05:56:34;71615.53;;;19.44
64600;BMP280;6553;48.412;9.514;2024-03-22T05:58:59;71618.16;;;19.47
64600;BMP280;6553;48.412;9.514;2024-03-22T06:01:25;71616.69;;;19.43
64600;BMP280;6553;48.412;9.514;2024-03-22T06:03:51;71620.94;;;19.47
64600;BMP280;6553;48.412;9.514;2024-03-22T06:06:17;71617.63;;;19.46
64600;BMP280;6553;48.412;9.514;2024-03-22T06:08:43;71621.47;;;19.47
64600;BMP280;6553;48.412;9.514;2024-03-22T06:11:11;71627.53;;;19.48
64600;BMP280;6553;48.412;9.514;2024-03-22T06:13:37;71619.34;;;19.45
64600;BMP280;6553;48.412;9.514;2024-03-22T06:16:03;71622.09;;;19.45
64600;BMP280;6553;48.412;9.514;2024-03-22T06:18:29;71619.25;;;19.48
64600;BMP280;6553;48.412;9.514;2024-03-22T06:20:55;71616.28;;;19.40
64600;BMP280;6553;48.412;9.514;2024-03-22T06:23:22;71629.13;;;19.49
64600;BMP280;6553;48.412;9.514;2024-03-22T06:25:55;71620.28;;;19.49
64600;BMP280;6553;48.412;9.514;2024-03-22T06:28:21;71624.25;;;19.47
64600;BMP280;6553;48.412;9.514;2024-03-22T06:30:47;71618.72;;;19.47
64600;BMP280;6553;48.412;9.514;2024-03-22T06:33:13;71620.81;;;19.49
64600;BMP280;6553;48.412;9.514;2024-03-22T06:35:41;71620.81;;;19.49
64600;BMP280;6553;48.412;9.514;2024-03-22T06:38:06;71627.53;;;19.48
64600;BMP280;6553;48.412;9.514;2024-03-22T06:40:32;71623.06;;;19.49
64600;BMP280;6553;48.412;9.514;2024-03-22T06:42:58;71628.50;;;19.51
64600;BMP280;6553;48.412;9.514;2024-03-22T06:45:24;71622.97;;;19.51
64600;BMP280;6553;48.412;9.514;2024-03-22T06:47:50;71626.66;;;19.55
64600;BMP280;6553;48.412;9.514;2024-03-22T06:50:15;71633.69;;;19.59
64600;BMP280;6553;48.412;9.514;2024-03-22T06:52:43;71630.38;;;19.58
64600;BMP280;6553;48.412;9.514;2024-03-22T06:55:09;71632.63;;;19.58
64600;BMP280;6553;48.412;9.514;2024-03-22T06:57:37;71636.97;;;19.59
64600;BMP280;6553;48.412;9.514;2024-03-22T07:00:04;71636.88;;;19.62
64600;BMP280;6553;48.412;9.514;2024-03-22T07:02:30;71643.44;;;19.63
64600;BMP280;6553;48.412;9.514;2024-03-22T07:04:55;71648.13;;;19.70
64600;BMP280;6553;48.412;9.514;2024-03-22T07:07:21;71645.91;;;19.71
64600;BMP280;6553;48.412;9.514;2024-03-22T07:09:47;71643.66;;;19.71
64600;BMP280;6553;48.412;9.514;2024-03-22T07:12:13;71642.06;;;19.70
64600;BMP280;6553;48.412;9.514;2024-03-22T07:14:39;71644.19;;;19.72
64600;BMP280;6553;48.412;9.514;2024-03-22T07:17:04;71650.56;;;19.78
64600;BMP280;6553;48.412;9.514;2024-03-22T07:19:31;71657.16;;;19.79
64600;BMP280;6553;48.412;9.514;2024-03-22T07:21:58;71652.78;;;19.77
64600;BMP280;6553;48.412;9.514;2024-03-22T07:24:25;71652.16;;;19.79
64600;BMP280;6553;48.412;9.514;2024-03-22T07:26:51;71656.94;;;19.84
64600;BMP280;6553;48.412;9.514;2024-03-22T07:29:17;71668.94;;;19.87
64600;BMP280;6553;48.412;9.514;2024-03-22T07:31:43;71659.69;;;19.84
64600;BMP280;6553;48.412;9.514;2024-03-22T07:34:09;71660.34;;;19.82
64600;BMP280;6553;48.412;9.514;2024-03-22T07:36:38;71660.75;;;19.85
64600;BMP280;6553;48.412;9.514;2024-03-22T07:39:04;71662.34;;;19.86
64600;BMP280;6553;48.412;9.514;2024-03-22T07:41:34;71661.72;;;19.88
64600;BMP280;6553;48.412;9.514;2024-03-22T07:44:00;71667.13;;;19.91
64600;BMP280;6553;48.412;9.514;2024-03-22T07:46:27;71671.91;;;19.95
64600;BMP280;6553;48.412;9.514;2024-03-22T07:48:53;71679.47;;;20.00
64600;BMP280;6553;48.412;9.514;2024-03-22T07:51:20;71682.66;;;20.03
64600;BMP280;6553;48.412;9.514;2024-03-22T07:53:46;71685.28;;;20.05
64600;BMP280;6553;48.412;9.514;2024-03-22T07:56:12;71680.81;;;20.06
64600;BMP280;6553;48.412;9.514;2024-03-22T07:58:41;71691.91;;;20.06
64600;BMP280;6553;48.412;9.514;2024-03-22T08:01:08;71687.97;;;20.08
64600;BMP280;6553;48.412;9.514;2024-03-22T08:03:33;71686.78;;;20.09
64600;BMP280;6553;48.412;9.514;2024-03-22T08:05:59;71689.56;;;20.09
64600;BMP280;6553;48.412;9.514;2024-03-22T08:08:25;71692.19;;;20.12
64600;BMP280;6553;48.412;9.514;2024-03-22T08:10:51;71692.63;;;20.15
64600;BMP280;6553;48.412;9.514;2024-03-22T08:13:16;71698.69;;;20.15
64600;BMP280;6553;48.412;9.514;2024-03-22T08:15:42;71693.16;;;20.15
64600;BMP280;6553;48.412;9.514;2024-03-22T08:18:11;71692.09;;;20.14
64600;BMP280;6553;48.412;9.514;2024-03-22T08:20:37;71699.13;;;20.18
64600;BMP280;6553;48.412;9.514;2024-03-22T08:23:05;71695.41;;;20.15
64600;BMP280;6553;48.412;9.514;2024-03-22T08:25:31;71692.53;;;20.17
64600;BMP280;6553;48.412;9.514;2024-03-22T08:27:57;71695.16;;;20.20
64600;BMP280;6553;48.412;9.514;2024-03-22T08:30:24;71700.69;;;20.20
64600;BMP280;6553;48.412;9.514;2024-03-22T08:32:54;71705.59;;;20.22
64600;BMP280;6553;48.412;9.514;2024-03-22T08:35:19;71694.63;;;20.19
64600;BMP280;6553;48.412;9.514;2024-03-22T08:37:46;71701.78;;;20.21
64600;BMP280;6553;48.412;9.514;2024-03-22T08:40:12;71705.59;;;20.22
64600;BMP280;6553;48.412;9.514;2024-03-22T08:42:39;71709.97;;;20.23
64600;BMP280;6553;48.412;9.514;2024-03-22T08:45:06;71701.66;;;20.23
64600;BMP280;6553;48.412;9.514;2024-03-22T08:47:32;71698.47;;;20.20
64600;BMP280;6553;48.412;9.514;2024-03-22T08:50:00;71704.41;;;20.23
64600;BMP280;6553;48.412;9.514;2024-03-22T08:52:25;71697.94;;;20.20
64600;BMP280;6553;48.412;9.514;2024-03-22T08:54:52;71706.53;;;20.25
64600;BMP280;6553;48.412;9.514;2024-03-22T08:57:18;71704.41;;;20.23
64600;BMP280;6553;48.412;9.514;2024-03-22T08:59:45;71705.50;;;20.24
64600;BMP280;6553;48.412;9.514;2024-03-22T09:02:11;71704.41;;;20.23
64600;BMP280;6553;48.412;9.514;2024-03-22T09:04:38;71709.84;;;20.26
64600;BMP280;6553;48.412;9.514;2024-03-22T09:07:03;71706.53;;;20.25
64600;BMP280;6553;48.412;9.514;2024-03-22T09:09:30;71704.81;;;20.26
64600;BMP280;6553;48.412;9.514;2024-03-22T09:11:56;71701.25;;;20.20
64600;BMP280;6553;48.412;9.514;2024-03-22T09:14:21;71702.31;;;20.21
64600;BMP280;6553;48.412;9.514;2024-03-22T09:16:47;71694.63;;;20.19
64600;BMP280;6553;48.412;9.514;2024-03-22T09:19:13;71703.25;;;20.25
64600;BMP280;6553;48.412;9.514;2024-03-22T09:21:38;71703.88;;;20.23
64600;BMP280;6553;48.412;9.514;2024-03-22T09:24:04;71695.16;;;20.20
64600;BMP280;6553;48.412;9.514;2024-03-22T09:26:34;71706.53;;;20.25
64600;BMP280;6553;48.412;9.514;2024-03-22T09:29:00;71700.56;;;20.22
64600;BMP280;6553;48.412;9.514;2024-03-22T09:31:26;71703.25;;;20.25
64600;BMP280;6553;48.412;9.514;2024-03-22T09:33:52;71703.78;;;20.25
64600;BMP280;6553;48.412;9.514;2024-03-22T09:36:18;71705.50;;;20.24
64600;BMP280;6553;48.412;9.514;2024-03-22T09:38:44;71700.06;;;20.22
64600;BMP280;6553;48.412;9.514;2024-03-22T09:41:09;71706.03;;;20.25
64600;BMP280;6553;48.412;9.514;2024-03-22T09:43:38;71703.88;;;20.23
64600;BMP280;6553;48.412;9.514;2024-03-22T09:46:05;71702.19;;;20.24
64600;BMP280;6553;48.412;9.514;2024-03-22T09:48:33;71702.72;;;20.24
64600;BMP280;6553;48.412;9.514;2024-03-22T09:51:00;71701.00;;;20.25
64600;BMP280;6553;48.412;9.514;2024-03-22T09:53:28;71701.00;;;20.25
64600;BMP280;6553;48.412;9.514;2024-03-22T09:55:59;71699.41;;;20.24
64600;BMP280;6553;48.412;9.514;2024-03-22T09:58:27;71703.78;;;20.25
64600;BMP280;6553;48.412;9.514;2024-03-22T10:00:53;71704.94;;;20.24
64600;BMP280;6553;48.412;9.514;2024-03-22T10:03:21;71702.72;;;20.24
64600;BMP280;6553;48.412;9.514;2024-03-22T10:05:47;71705.50;;;20.24
64600;BMP280;6553;48.412;9.514;2024-03-22T10:08:13;71707.59;;;20.26
64600;BMP280;6553;48.412;9.514;2024-03-22T10:10:39;71703.78;;;20.25
64600;BMP280;6553;48.412;9.514;2024-03-22T10:13:04;71709.19;;;20.28
64600;BMP280;6553;48.412;9.514;2024-03-22T10:15:30;71700.47;;;20.25
64600;BMP280;6553;48.412;9.514;2024-03-22T10:17:57;71702.59;;;20.27
64600;BMP280;6553;48.412;9.514;2024-03-22T10:20:24;71708.13;;;20.27
64600;BMP280;6553;48.412;9.514;2024-03-22T10:22:56;71708.66;;;20.27
64600;BMP280;6553;48.412;9.514;2024-03-22T10:25:24;71708.03;;;20.29
64600;BMP280;6553;48.412;9.514;2024-03-22T10:27:50;71704.31;;;20.26
64600;BMP280;6553;48.412;9.514;2024-03-22T10:30:17;71709.06;;;20.30
64600;BMP280;6553;48.412;9.514;2024-03-22T10:32:43;71707.47;;;20.29
64600;BMP280;6553;48.412;9.514;2024-03-22T10:35:13;71710.78;;;20.29
64600;BMP280;6553;48.412;9.514;2024-03-22T10:37:40;71712.38;;;20.31
64600;BMP280;6553;48.412;9.514;2024-03-22T10:40:07;71711.84;;;20.30
64600;BMP280;6553;48.412;9.514;2024-03-22T10:42:41;71715.03;;;20.33
64600;BMP280;6553;48.412;9.514;2024-03-22T10:45:09;71706.31;;;20.30
64600;BMP280;6553;48.412;9.514;2024-03-22T10:47:37;71707.38;;;20.31
64600;BMP280;6553;48.412;9.514;2024-03-22T10:50:09;71716.63;;;20.35
64600;BMP280;6553;48.412;9.514;2024-03-22T10:52:54;71711.63;;;20.35
64600;BMP280;6553;48.412;9.514;2024-03-22T10:55:30;71717.69;;;20.36
64600;BMP280;6553;48.412;9.514;2024-03-22T10:57:58;71718.22;;;20.36
64600;BMP280;6553;48.412;9.514;2024-03-22T11:00:34;71711.09;;;20.35
64600;BMP280;6553;48.412;9.514;2024-03-22T11:03:04;71713.22;;;20.37
64600;BMP280;6553;48.412;9.514;2024-03-22T11:05:30;71716.63;;;20.35
64600;BMP280;6553;48.412;9.514;2024-03-22T11:08:04;71714.41;;;20.35
64600;BMP280;6553;48.412;9.514;2024-03-22T11:10:33;71713.84;;;20.35
64600;BMP280;6553;48.412;9.514;2024-03-22T11:13:07;71718.22;;;20.36
64600;BMP280;6553;48.412;9.514;2024-03-22T11:15:34;71720.38;;;20.38
64600;BMP280;6553;48.412;9.514;2024-03-22T11:18:00;71719.28;;;20.37
64600;BMP280;6553;48.412;9.514;2024-03-22T11:20:29;71713.34;;;20.34
64600;BMP280;6553;48.412;9.514;2024-03-22T11:22:56;71722.47;;;20.40
64600;BMP280;6553;48.412;9.514;2024-03-22T11:25:22;71720.88;;;20.39
64600;BMP280;6553;48.412;9.514;2024-03-22T11:27:48;71720.38;;;20.38
64600;BMP280;6553;48.412;9.514;2024-03-22T11:30:15;71719.28;;;20.37
64600;BMP280;6553;48.412;9.514;2024-03-22T11:32:41;71723.13;;;20.38
64600;BMP280;6553;48.412;9.514;2024-03-22T11:35:12;71714.81;;;20.38
64600;BMP280;6553;48.412;9.514;2024-03-22T11:37:42;71723.00;;;20.41
64600;BMP280;6553;48.412;9.514;2024-03-22T11:40:11;71729.09;;;20.41
64600;BMP280;6553;48.412;9.514;2024-03-22T11:42:49;71721.31;;;20.42
64600;BMP280;6553;48.412;9.514;2024-03-22T11:45:17;71725.66;;;20.43
64600;BMP280;6553;48.412;9.514;2024-03-22T11:47:46;71719.06;;;20.42
64600;BMP280;6553;48.412;9.514;2024-03-22T11:50:13;71723.53;;;20.41
64600;BMP280;6553;48.412;9.514;2024-03-22T11:52:44;71726.94;;;20.39
64600;BMP280;6553;48.412;9.514;2024-03-22T11:55:14;71723.94;;;20.44
64600;BMP280;6553;48.412;9.514;2024-03-22T11:57:41;71721.31;;;20.42
64600;BMP280;6553;48.412;9.514;2024-03-22T12:00:07;71725.03;;;20.45
64600;BMP280;6553;48.412;9.514;2024-03-22T12:02:41;71730.69;;;20.43
64600;BMP280;6553;48.412;9.514;2024-03-22T12:05:07;71727.91;;;20.43
64600;BMP280;6553;48.412;9.514;2024-03-22T12:07:34;71720.78;;;20.41
64600;BMP280;6553;48.412;9.514;2024-03-22T12:10:00;71722.38;;;20.43
64600;BMP280;6553;48.412;9.514;2024-03-22T12:12:25;71723.53;;;20.41
64600;BMP280;6553;48.412;9.514;2024-03-22T12:14:52;71726.19;;;20.44
64600;BMP280;6553;48.412;9.514;2024-03-22T12:17:18;71722.88;;;20.43
64600;BMP280;6553;48.412;9.514;2024-03-22T12:19:44;71722.47;;;20.40
64600;BMP280;6553;48.412;9.514;2024-03-22T12:22:10;71722.88;;;20.43
64600;BMP280;6553;48.412;9.514;2024-03-22T12:24:36;71727.78;;;20.45
64600;BMP280;6553;48.412;9.514;2024-03-22T12:27:02;71724.50;;;20.45
64600;BMP280;6553;48.412;9.514;2024-03-22T12:29:28;71717.59;;;20.38
64600;BMP280;6553;48.412;9.514;2024-03-22T12:31:54;71726.19;;;20.44
64600;BMP280;6553;48.412;9.514;2024-03-22T12:34:20;71725.66;;;20.43
64600;BMP280;6553;48.412;9.514;2024-03-22T12:36:46;71727.91;;;20.43
64600;BMP280;6553;48.412;9.514;2024-03-22T12:39:11;71719.94;;;20.35
64600;BMP280;6553;48.412;9.514;2024-03-22T12:41:38;71727.41;;;20.42
64600;BMP280;6553;48.412;9.514;2024-03-22T12:44:04;71725.66;;;20.43
64600;BMP280;6553;48.412;9.514;2024-03-22T12:46:29;71725.66;;;20.43
64600;BMP280;6553;48.412;9.514;2024-03-22T12:48:55;71730.69;;;20.43
64600;BMP280;6553;48.412;9.514;2024-03-22T12:51:21;71725.56;;;20.46
64600;BMP280;6553;48.412;9.514;2024-03-22T12:53:47;71727.78;;;20.45
64600;BMP280;6553;48.412;9.514;2024-03-22T12:56:13;71731.09;;;20.46
64600;BMP280;6553;48.412;9.514;2024-03-22T12:58:39;71730.44;;;20.48
64600;BMP280;6553;48.412;9.514;2024-03-22T13:01:05;71733.34;;;20.45
64600;BMP280;6553;48.412;9.514;2024-03-22T13:03:33;71726.63;;;20.47
64600;BMP280;6553;48.412;9.514;2024-03-22T13:05:59;71733.88;;;20.46
64600;BMP280;6553;48.412;9.514;2024-03-22T13:08:25;71726.06;;;20.46
64600;BMP280;6553;48.412;9.514;2024-03-22T13:10:50;71733.75;;;20.48
64600;BMP280;6553;48.412;9.514;2024-03-22T13:13:18;71726.72;;;20.44
64600;BMP280;6553;48.412;9.514;2024-03-22T13:15:44;71736.41;;;20.51
64600;BMP280;6553;48.412;9.514;2024-03-22T13:18:09;71727.78;;;20.45
64600;BMP280;6553;48.412;9.514;2024-03-22T13:20:36;71732.69;;;20.47
64600;BMP280;6553;48.412;9.514;2024-03-22T13:23:02;71729.91;;;20.47
64600;BMP280;6553;48.412;9.514;2024-03-22T13:25:28;71732.16;;;20.47
64600;BMP280;6553;48.412;9.514;2024-03-22T13:27:54;71725.44;;;20.48
64600;BMP280;6553;48.412;9.514;2024-03-22T13:30:20;71730.44;;;20.48
64600;BMP280;6553;48.412;9.514;2024-03-22T13:32:46;71723.84;;;20.47
64600;BMP280;6553;48.412;9.514;2024-03-22T13:35:11;71726.06;;;20.46
64600;BMP280;6553;48.412;9.514;2024-03-22T13:37:37;71726.63;;;20.47
64600;BMP280;6553;48.412;9.514;2024-03-22T13:40:03;71734.28;;;20.49
64600;BMP280;6553;48.412;9.514;2024-03-22T13:42:29;71731.50;;;20.49
64600;BMP280;6553;48.412;9.514;2024-03-22T13:44:56;71732.06;;;20.49
64600;BMP280;6553;48.412;9.514;2024-03-22T13:47:26;71729.78;;;20.50
64600;BMP280;6553;48.412;9.514;2024-03-22T13:49:53;71734.28;;;20.49
64600;BMP280;6553;48.412;9.514;2024-03-22T13:52:19;71732.06;;;20.49
64600;BMP280;6553;48.412;9.514;2024-03-22T13:54:46;71730.44;;;20.48
64600;BMP280;6553;48.412;9.514;2024-03-22T13:57:12;71730.97;;;20.48
64600;BMP280;6553;48.412;9.514;2024-03-22T13:59:38;71728.34;;;20.46
64600;BMP280;6553;48.412;9.514;2024-03-22T14:02:06;71728.34;;;20.46
64600;BMP280;6553;48.412;9.514;2024-03-22T14:04:34;71724.34;;;20.47
64600;BMP280;6553;48.412;9.514;2024-03-22T14:06:59;71727.78;;;20.45
64600;BMP280;6553;48.412;9.514;2024-03-22T14:09:31;71728.34;;;20.46
64600;BMP280;6553;48.412;9.514;2024-03-22T14:11:57;71729.38;;;20.47
64600;BMP280;6553;48.412;9.514;2024-03-22T14:14:23;71729.50;;;20.44
64600;BMP280;6553;48.412;9.514;2024-03-22T14:16:49;71733.22;;;20.48
64600;BMP280;6553;48.412;9.514;2024-03-22T14:19:15;71726.06;;;20.46